Urb Peninsula de San Juan, Puerto Rico
Current Conditions -  °F | °C
As of 1:53 AM on Monday 26 Jan 2015 (Local Time) from TJNR Reporting Station
Clear Clear  
Wind Chill: 72°   Ceiling: Unl
Heat Index: 72°   Visibility: 10mi
Dew Point: 70°   Wind: 0mph
Humidity: 93%   Direction: NA
Pressure: 30.01"   Gusts: NA
Location:  18.1494°N, 65.8294°W
Report Text: TJNR 260553Z AUTO 00000KT 10SM CLR 22/21 A3001 RMK AO2 SLP163 60005 T02220211 10244 20217 58016 $
Loading
Personal Weather Stations






























Interactive Weather Map New forecast layout! Learn more

10-Day Weather Forecast

Advertisements
Track Severe Weather on mobile